Time;durP1;ratioP1;P1;durP2;ratioP2;P2;SDS_P1;SDS_P2;PMS_P1;PMS_P2;Temp;Humidity;BMP_temperature;BMP_pressure;BME280_temperature;BME280_humidity;BME280_pressure;Samples;Min_cycle;Max_cycle;Signal;HPM_P1;HPM_P2
2022/12/22 16:13:38;;;;;;;63.40;28.17;;;8.10;99.90;;;;;;5155957;27;20365;-60
2022/12/22 16:16:07;;;;;;;56.47;26.63;;;8.10;99.90;;;;;;5141302;27;20126;-60
2022/12/22 16:18:33;;;;;;;55.75;26.67;;;8.20;99.90;;;;;;5149072;27;20522;-61
2022/12/22 16:21:16;;;;;;;51.63;23.85;;;8.30;99.90;;;;;;5150117;27;20023;-61
2022/12/22 16:23:45;;;;;;;45.75;21.15;;;8.40;99.90;;;;;;5139486;27;20015;-61
2022/12/22 16:26:16;;;;;;;44.55;19.35;;;8.50;99.90;;;;;;5128973;28;20080;-61
2022/12/22 16:28:42;;;;;;;33.20;16.67;;;8.60;99.90;;;;;;5144248;27;20019;-62
2022/12/22 16:31:16;;;;;;;40.40;18.60;;;8.60;99.90;;;;;;5129438;27;20077;-61
2022/12/22 16:33:41;;;;;;;42.08;18.05;;;8.70;99.90;;;;;;5139146;27;20045;-61
2022/12/22 16:36:07;;;;;;;41.88;17.67;;;8.80;99.90;;;;;;5141035;27;20102;-62
2022/12/22 16:38:33;;;;;;;37.60;16.95;;;8.80;99.90;;;;;;5128086;28;20498;-62
2022/12/22 16:40:59;;;;;;;42.88;19.13;;;8.80;99.90;;;;;;5130176;27;20051;-61
2022/12/22 16:43:35;;;;;;;40.95;19.33;;;8.80;99.90;;;;;;5130341;27;20096;-61
2022/12/22 16:46:04;;;;;;;38.67;18.98;;;8.90;99.90;;;;;;5128282;28;20027;-61
2022/12/22 16:48:37;;;;;;;41.88;19.15;;;8.80;99.90;;;;;;5130210;27;20073;-62
2022/12/22 16:51:03;;;;;;;42.38;20.77;;;8.80;99.90;;;;;;5110968;28;20062;-61
2022/12/22 16:53:28;;;;;;;51.90;21.88;;;8.80;99.90;;;;;;5128452;28;20048;-61
2022/12/22 16:55:54;;;;;;;46.22;21.00;;;8.80;99.90;;;;;;5129343;28;20085;-61
2022/12/22 16:58:20;;;;;;;43.33;20.58;;;8.90;99.90;;;;;;5129060;27;20058;-61
2022/12/22 17:00:46;;;;;;;40.78;17.77;;;8.90;99.90;;;;;;5110059;28;20038;-61
2022/12/22 17:03:24;;;;;;;39.70;17.67;;;8.90;99.90;;;;;;5128380;28;20035;-61
2022/12/22 17:05:59;;;;;;;38.80;17.08;;;8.90;99.90;;;;;;5128449;28;20019;-58
2022/12/22 17:08:28;;;;;;;34.17;15.07;;;8.90;99.90;;;;;;5132695;27;20065;-61
2022/12/22 17:10:56;;;;;;;36.35;15.13;;;8.90;99.90;;;;;;5148962;27;20371;-61
2022/12/22 17:13:23;;;;;;;32.45;15.35;;;8.90;99.90;;;;;;5149537;27;20137;-61
2022/12/22 17:15:48;;;;;;;30.30;13.85;;;8.90;99.90;;;;;;5137389;27;20453;-61
2022/12/22 17:18:16;;;;;;;30.90;13.30;;;8.90;99.90;;;;;;5128644;28;20098;-60
2022/12/22 17:20:43;;;;;;;31.17;15.05;;;8.90;99.90;;;;;;5142970;27;20031;-61
2022/12/22 17:23:23;;;;;;;30.98;14.23;;;8.90;99.90;;;;;;5143772;27;20760;-61
2022/12/22 17:25:48;;;;;;;32.72;15.15;;;8.90;99.90;;;;;;5114502;28;20488;-60
2022/12/22 17:28:14;;;;;;;31.90;16.48;;;8.90;99.90;;;;;;5113687;28;20024;-60
2022/12/22 17:30:40;;;;;;;32.55;15.10;;;8.90;99.90;;;;;;5115273;27;20032;-62
2022/12/22 17:33:15;;;;;;;36.10;15.32;;;8.90;99.90;;;;;;5125376;27;20043;-60
2022/12/22 17:35:42;;;;;;;41.53;19.80;;;9.00;99.90;;;;;;5113718;28;20019;-59
2022/12/22 17:38:16;;;;;;;39.25;19.92;;;9.00;99.90;;;;;;5133323;27;20479;-61
2022/12/22 17:40:42;;;;;;;41.30;18.98;;;9.00;99.90;;;;;;5111343;28;20031;-61
2022/12/22 17:43:15;;;;;;;38.90;18.02;;;8.90;99.90;;;;;;5095167;28;20547;-61
2022/12/22 17:45:44;;;;;;;38.55;17.85;;;8.90;99.90;;;;;;5123833;27;20063;-60
2022/12/22 17:48:10;;;;;;;37.72;17.45;;;8.90;99.90;;;;;;5123227;27;20471;-60
2022/12/22 17:50:37;;;;;;;41.83;17.55;;;8.90;99.90;;;;;;5133567;27;20033;-61
2022/12/22 17:53:04;;;;;;;40.25;18.15;;;8.90;99.90;;;;;;5131915;27;20035;-61
2022/12/22 17:55:31;;;;;;;37.42;17.42;;;9.00;99.90;;;;;;5095656;28;20015;-61
2022/12/22 17:57:56;;;;;;;35.53;16.60;;;9.00;99.90;;;;;;5113603;28;20570;-61
2022/12/22 18:00:23;;;;;;;38.88;17.63;;;8.90;99.90;;;;;;5114271;28;20024;-60
2022/12/22 18:02:49;;;;;;;35.00;15.65;;;9.00;99.90;;;;;;5113241;28;20446;-61
2022/12/22 18:05:20;;;;;;;35.20;16.20;;;9.00;99.90;;;;;;5100371;27;20106;-64
2022/12/22 18:07:47;;;;;;;31.25;15.88;;;9.00;99.90;;;;;;5125337;27;20544;-61
2022/12/22 18:10:24;;;;;;;32.85;16.48;;;9.00;99.90;;;;;;5130410;27;20818;-61
2022/12/22 18:12:51;;;;;;;32.45;14.30;;;9.00;99.90;;;;;;5129281;27;20478;-61
2022/12/22 18:15:18;;;;;;;33.80;14.95;;;9.00;99.90;;;;;;5113711;28;20012;-61
2022/12/22 18:17:44;;;;;;;33.72;15.18;;;9.00;99.90;;;;;;5117515;27;20026;-60
2022/12/22 18:20:28;;;;;;;34.20;15.55;;;9.00;99.90;;;;;;5123665;27;20027;-61
2022/12/22 18:22:57;;;;;;;38.13;17.25;;;9.00;99.90;;;;;;5134134;27;20027;-61
2022/12/22 18:25:29;;;;;;;45.55;20.50;;;9.00;99.90;;;;;;5132656;27;20483;-62
2022/12/22 18:27:56;;;;;;;31.63;15.68;;;9.10;99.90;;;;;;5134328;27;20111;-61
2022/12/22 18:30:25;;;;;;;30.60;13.25;;;9.10;99.90;;;;;;5133954;27;20015;-61
2022/12/22 18:32:52;;;;;;;30.83;15.32;;;9.00;99.90;;;;;;5121491;27;20101;-61
2022/12/22 18:35:20;;;;;;;32.70;16.27;;;9.10;99.90;;;;;;5131105;27;20019;-60
2022/12/22 18:37:46;;;;;;;41.65;20.55;;;9.00;99.90;;;;;;5118976;27;20111;-61
2022/12/22 18:40:28;;;;;;;41.95;19.65;;;9.10;99.90;;;;;;5111770;28;20102;-61
2022/12/22 18:42:55;;;;;;;41.78;19.27;;;9.10;99.90;;;;;;5118664;27;20044;-63
2022/12/22 18:45:22;;;;;;;44.08;21.00;;;9.10;99.90;;;;;;5124968;27;20030;-63
2022/12/22 18:47:48;;;;;;;49.38;24.08;;;9.10;99.90;;;;;;5128117;27;20386;-62
2022/12/22 18:50:23;;;;;;;42.88;21.33;;;9.10;99.90;;;;;;5133323;27;20023;-63
2022/12/22 18:52:50;;;;;;;37.13;17.75;;;9.10;99.90;;;;;;5130648;27;20035;-63
2022/12/22 18:55:16;;;;;;;34.78;16.63;;;9.10;99.90;;;;;;5133805;27;20022;-62
2022/12/22 18:57:46;;;;;;;34.38;16.27;;;9.10;99.90;;;;;;5114834;27;20015;-64
2022/12/22 19:00:14;;;;;;;33.10;15.23;;;9.20;99.90;;;;;;5129780;27;20024;-61
2022/12/22 19:02:40;;;;;;;30.00;14.45;;;9.10;99.90;;;;;;5113522;27;20071;-61
2022/12/22 19:05:17;;;;;;;24.00;13.13;;;9.20;99.90;;;;;;5121880;27;20482;-58
2022/12/22 19:07:43;;;;;;;23.27;11.23;;;9.10;99.90;;;;;;5110882;27;20036;-60
2022/12/22 19:10:14;;;;;;;25.25;12.15;;;9.20;99.90;;;;;;5114995;27;20836;-59
2022/12/22 19:12:40;;;;;;;25.55;13.20;;;9.20;99.90;;;;;;5112004;28;20093;-60
2022/12/22 19:15:14;;;;;;;23.15;12.18;;;9.20;99.90;;;;;;5114678;27;20015;-60
2022/12/22 19:17:40;;;;;;;25.38;12.10;;;9.20;99.90;;;;;;5130398;27;20030;-60
2022/12/22 19:20:20;;;;;;;23.48;11.38;;;9.20;99.90;;;;;;5132335;27;20029;-61
2022/12/22 19:22:46;;;;;;;20.63;10.68;;;9.20;99.90;;;;;;5106024;28;20028;-61
2022/12/22 19:25:16;;;;;;;27.65;13.23;;;9.20;99.90;;;;;;5112475;28;20023;-60
2022/12/22 19:27:43;;;;;;;23.27;11.38;;;9.30;99.90;;;;;;5105041;27;20110;-61
2022/12/22 19:30:20;;;;;;;24.60;12.13;;;9.30;99.90;;;;;;5132382;27;20064;-61
2022/12/22 19:32:55;;;;;;;27.42;11.82;;;9.30;99.90;;;;;;5120496;27;20088;-64
2022/12/22 19:35:22;;;;;;;30.83;15.02;;;9.30;99.90;;;;;;5114219;27;20024;-61
2022/12/22 19:37:50;;;;;;;34.35;15.73;;;9.30;99.90;;;;;;5118519;27;20513;-64
2022/12/22 19:40:18;;;;;;;53.50;24.55;;;9.30;99.90;;;;;;5112695;27;20044;-64
2022/12/22 19:42:46;;;;;;;56.80;24.80;;;9.20;99.90;;;;;;5110998;28;20015;-60
2022/12/22 19:45:18;;;;;;;56.15;25.05;;;9.30;99.90;;;;;;5116568;27;20051;-61
2022/12/22 19:47:45;;;;;;;49.95;22.85;;;9.30;99.90;;;;;;5120906;27;20068;-63
2022/12/22 19:50:14;;;;;;;47.88;22.42;;;9.30;99.90;;;;;;5111331;28;20012;-64
2022/12/22 19:52:40;;;;;;;35.60;20.17;;;9.30;99.90;;;;;;5110957;28;20449;-64
